createdAt,value
2019-03-16T00:00:36.276Z,63.71
2019-03-16T00:01:36.125Z,63.71
2019-03-16T00:02:36.117Z,63.09
2019-03-16T00:03:36.111Z,63.09
2019-03-16T00:04:36.100Z,63.40
2019-03-16T00:05:36.084Z,63.40
2019-03-16T00:06:36.087Z,63.81
2019-03-16T00:07:36.063Z,63.29
2019-03-16T00:08:36.049Z,63.81
2019-03-16T00:09:36.041Z,63.19
2019-03-16T00:10:36.026Z,63.50
2019-03-16T00:11:36.065Z,63.29
2019-03-16T00:12:36.005Z,63.50
2019-03-16T00:13:35.998Z,63.81
2019-03-16T00:14:35.986Z,63.40
2019-03-16T00:15:35.980Z,63.81
2019-03-16T00:16:35.963Z,63.19
2019-03-16T00:17:35.952Z,63.60
2019-03-16T00:18:35.946Z,63.22
2019-03-16T00:19:35.986Z,63.81
2019-03-16T00:20:35.951Z,63.60
2019-03-16T00:21:35.908Z,63.22
2019-03-16T00:22:35.908Z,63.71
2019-03-16T00:23:35.888Z,63.29
2019-03-16T00:24:35.875Z,63.84
2019-03-16T00:25:35.861Z,63.84
2019-03-16T00:26:35.895Z,63.43
2019-03-16T00:27:35.842Z,63.22
2019-03-16T00:28:35.832Z,63.43
2019-03-16T00:29:35.824Z,63.32
2019-03-16T00:30:35.820Z,63.53
2019-03-16T00:31:35.801Z,63.74
2019-03-16T00:32:35.784Z,64.67
2019-03-16T00:33:35.824Z,64.25
2019-03-16T00:34:35.765Z,63.84
2019-03-16T00:35:35.768Z,64.36
2019-03-16T00:36:35.740Z,63.95
2019-03-16T00:37:35.734Z,63.95
2019-03-16T00:38:35.721Z,64.36
2019-03-16T00:39:35.718Z,64.25
2019-03-16T00:40:35.699Z,64.36
2019-03-16T00:41:35.715Z,64.18
2019-03-16T00:42:35.681Z,63.95
2019-03-16T00:43:35.669Z,64.46
2019-03-16T00:44:35.665Z,67.14
2019-03-16T00:45:35.640Z,68.14
2019-03-16T00:46:35.680Z,66.56
2019-03-16T00:47:35.618Z,66.53
2019-03-16T00:48:35.612Z,66.33
2019-03-16T00:49:35.601Z,66.53
2019-03-16T00:50:35.665Z,64.89
2019-03-16T00:51:35.580Z,62.10
2019-03-16T00:52:35.564Z,62.44
2019-03-16T00:53:35.555Z,63.09
2019-03-16T00:54:35.548Z,63.09
2019-03-16T00:55:35.556Z,64.46
2019-03-16T00:56:35.532Z,64.12
2019-03-16T00:57:35.512Z,64.67
2019-03-16T00:58:35.498Z,64.77
2019-03-16T00:59:35.528Z,65.08
2019-03-16T01:00:35.476Z,64.56
2019-03-16T01:01:35.465Z,64.87
2019-03-16T01:02:35.462Z,64.77
2019-03-16T01:03:35.449Z,65.28
2019-03-16T01:04:35.436Z,65.11
2019-03-16T01:05:35.430Z,65.18
2019-03-16T01:06:35.412Z,65.83
2019-03-16T01:07:35.414Z,65.62
2019-03-16T01:08:35.393Z,65.83
2019-03-16T01:09:35.386Z,65.94
2019-03-16T01:10:35.445Z,66.55
2019-03-16T01:11:35.355Z,65.83
2019-03-16T01:12:35.343Z,66.55
2019-03-16T01:13:35.338Z,66.45
2019-03-16T01:14:35.320Z,66.66
2019-03-16T01:15:35.315Z,67.17
2019-03-16T01:16:35.317Z,66.66
2019-03-16T01:17:35.295Z,66.76
2019-03-16T01:18:35.292Z,67.17
2019-03-16T01:19:35.274Z,66.35
2019-03-16T01:20:35.254Z,66.66
2019-03-16T01:21:35.316Z,66.45
2019-03-16T01:22:35.277Z,66.97
2019-03-16T01:23:35.228Z,67.48
2019-03-16T01:24:35.215Z,66.97
2019-03-16T01:25:35.206Z,66.45
2019-03-16T01:26:35.271Z,67.48
2019-03-16T01:27:35.179Z,67.17
2019-03-16T01:28:35.165Z,67.48
2019-03-16T01:29:35.162Z,67.27
2019-03-16T01:30:35.148Z,67.48
2019-03-16T01:31:35.139Z,67.17
2019-03-16T01:32:40.577Z,67.58
2019-03-16T01:33:36.166Z,66.86
2019-03-16T01:34:35.104Z,66.97
2019-03-16T01:35:35.096Z,67.58
2019-03-16T01:36:35.079Z,67.69
2019-03-16T01:37:35.084Z,67.79
2019-03-16T01:38:35.060Z,67.79
2019-03-16T01:39:35.096Z,67.58
2019-03-16T01:40:35.042Z,68.10
2019-03-16T01:41:35.022Z,67.58
2019-03-16T01:42:35.018Z,67.58
2019-03-16T01:43:35.025Z,67.79
2019-03-16T01:44:35.036Z,67.90
2019-03-16T01:45:34.984Z,67.69
2019-03-16T01:46:34.970Z,67.58
2019-03-16T01:47:34.960Z,67.79
2019-03-16T01:48:34.953Z,67.69
2019-03-16T01:49:34.939Z,67.48
2019-03-16T01:50:34.937Z,67.90
2019-03-16T01:51:34.916Z,68.00
2019-03-16T01:52:34.908Z,67.79
2019-03-16T01:53:34.891Z,68.21
2019-03-16T01:54:34.877Z,68.72
2019-03-16T01:55:34.916Z,68.10
2019-03-16T01:56:34.865Z,68.41
2019-03-16T01:57:34.852Z,68.62
2019-03-16T01:58:34.834Z,68.51
2019-03-16T01:59:34.827Z,68.41
2019-03-16T02:00:34.894Z,68.51
2019-03-16T02:01:34.799Z,68.93
2019-03-16T02:02:34.795Z,68.72
2019-03-16T02:03:34.783Z,69.03
2019-03-16T02:04:34.777Z,68.30
2019-03-16T02:05:34.760Z,68.10
2019-03-16T02:06:34.790Z,68.10
2019-03-16T02:07:34.766Z,68.00
2019-03-16T02:08:34.723Z,68.00
2019-03-16T02:09:34.717Z,68.41
2019-03-16T02:10:34.706Z,68.10
2019-03-16T02:11:34.746Z,68.41
2019-03-16T02:12:34.683Z,68.00
2019-03-16T02:13:34.668Z,68.93
2019-03-16T02:14:34.655Z,68.82
2019-03-16T02:15:34.649Z,68.82
2019-03-16T02:16:34.633Z,68.85
2019-03-16T02:17:34.637Z,68.72
2019-03-16T02:18:34.617Z,68.30
2019-03-16T02:19:36.122Z,68.82
2019-03-16T02:20:34.595Z,68.85
2019-03-16T02:21:34.734Z,68.00
2019-03-16T02:22:34.614Z,68.93
2019-03-16T02:23:34.563Z,68.44
2019-03-16T02:24:34.549Z,68.41
2019-03-16T02:25:34.537Z,68.41
2019-03-16T02:26:34.547Z,68.03
2019-03-16T02:27:34.518Z,68.10
2019-03-16T02:28:34.548Z,67.93
2019-03-16T02:29:34.495Z,68.72
2019-03-16T02:30:34.481Z,68.24
2019-03-16T02:31:34.475Z,68.34
2019-03-16T02:32:34.533Z,68.21
2019-03-16T02:33:34.453Z,68.00
2019-03-16T02:34:34.440Z,68.24
2019-03-16T02:35:34.423Z,68.00
2019-03-16T02:36:34.420Z,68.13
2019-03-16T02:37:34.400Z,68.03
2019-03-16T02:38:34.451Z,68.65
2019-03-16T02:39:34.386Z,67.72
2019-03-16T02:40:34.371Z,67.61
2019-03-16T02:41:34.356Z,67.58
2019-03-16T02:42:34.351Z,67.79
2019-03-16T02:43:34.383Z,67.79
2019-03-16T02:44:34.404Z,67.72
2019-03-16T02:45:34.324Z,68.24
2019-03-16T02:46:34.308Z,68.13
2019-03-16T02:47:34.336Z,67.58
2019-03-16T02:48:34.293Z,67.93
2019-03-16T02:49:34.271Z,67.61
2019-03-16T02:50:34.304Z,68.34
2019-03-16T02:51:34.251Z,68.03
2019-03-16T02:52:34.256Z,68.44
2019-03-16T02:53:34.238Z,68.75
2019-03-16T02:54:34.217Z,68.85
2019-03-16T02:55:36.786Z,68.96
2019-03-16T02:56:34.196Z,69.06
2019-03-16T02:57:34.185Z,68.96
2019-03-16T02:58:34.185Z,68.96
2019-03-16T02:59:34.159Z,68.65
2019-03-16T03:00:34.148Z,69.06
2019-03-16T03:01:34.180Z,68.44
2019-03-16T03:02:34.129Z,68.54
2019-03-16T03:03:34.114Z,68.34
2019-03-16T03:04:34.107Z,68.75
2019-03-16T03:05:34.098Z,68.65
2019-03-16T03:06:34.109Z,68.96
2019-03-16T03:07:34.076Z,68.65
2019-03-16T03:08:34.063Z,68.65
2019-03-16T03:09:34.055Z,68.54
2019-03-16T03:10:34.042Z,68.75
2019-03-16T03:11:34.028Z,68.65
2019-03-16T03:12:34.096Z,69.48
2019-03-16T03:13:34.008Z,69.68
2019-03-16T03:14:33.994Z,69.68
2019-03-16T03:15:33.987Z,69.17
2019-03-16T03:16:33.981Z,69.68
2019-03-16T03:17:33.958Z,69.78
2019-03-16T03:18:33.972Z,69.68
2019-03-16T03:19:33.938Z,69.68
2019-03-16T03:20:33.930Z,69.68
2019-03-16T03:21:33.916Z,69.78
2019-03-16T03:22:33.908Z,69.68
2019-03-16T03:23:33.936Z,69.48
2019-03-16T03:24:33.884Z,69.99
2019-03-16T03:25:33.876Z,69.48
2019-03-16T03:26:33.863Z,69.68
2019-03-16T03:27:33.853Z,69.99
2019-03-16T03:28:33.919Z,69.89
2019-03-16T03:29:33.833Z,70.09
2019-03-16T03:30:33.861Z,70.20
2019-03-16T03:31:33.817Z,70.61
2019-03-16T03:32:33.799Z,70.61
2019-03-16T03:33:57.032Z,70.09
2019-03-16T03:34:34.832Z,70.20
2019-03-16T03:35:33.765Z,70.51
2019-03-16T03:36:33.750Z,70.09
2019-03-16T03:37:33.735Z,70.20
2019-03-16T03:38:33.739Z,69.89
2019-03-16T03:39:33.722Z,69.78
2019-03-16T03:40:33.754Z,69.99
2019-03-16T03:41:33.697Z,70.09
2019-03-16T03:42:33.687Z,69.89
2019-03-16T03:43:33.691Z,70.09
2019-03-16T03:44:33.694Z,69.99
2019-03-16T03:45:33.654Z,70.03
2019-03-16T03:46:33.637Z,70.20
2019-03-16T03:47:33.634Z,70.40
2019-03-16T03:48:33.617Z,69.89
2019-03-16T03:49:33.611Z,70.40
2019-03-16T03:50:33.641Z,70.92
2019-03-16T03:51:33.627Z,70.72
2019-03-16T03:52:33.578Z,70.95
2019-03-16T03:53:33.575Z,70.54
2019-03-16T03:54:33.553Z,70.72
2019-03-16T03:55:33.584Z,70.30
2019-03-16T03:56:33.532Z,70.82
2019-03-16T03:57:33.524Z,70.61
2019-03-16T03:58:33.511Z,70.40
2019-03-16T03:59:33.520Z,70.61
2019-03-16T04:00:33.546Z,70.95
2019-03-16T04:01:33.476Z,71.37
2019-03-16T04:02:33.470Z,71.37
2019-03-16T04:03:33.457Z,71.16
2019-03-16T04:04:33.441Z,71.44
2019-03-16T04:05:33.434Z,70.82
2019-03-16T04:06:33.450Z,71.23
2019-03-16T04:07:33.423Z,71.12
2019-03-16T04:08:33.454Z,71.02
2019-03-16T04:09:33.391Z,71.12
2019-03-16T04:10:33.381Z,70.72
2019-03-16T04:11:33.380Z,70.61
2019-03-16T04:12:33.360Z,70.72
2019-03-16T04:13:33.341Z,71.12
2019-03-16T04:14:33.335Z,71.12
2019-03-16T04:15:33.318Z,71.33
2019-03-16T04:16:33.354Z,71.88
2019-03-16T04:17:33.302Z,71.33
2019-03-16T04:18:33.292Z,71.67
2019-03-16T04:19:33.280Z,71.98
2019-03-16T04:20:33.269Z,71.78
2019-03-16T04:21:33.252Z,72.19
2019-03-16T04:22:33.297Z,72.09
2019-03-16T04:23:33.251Z,71.98
2019-03-16T04:24:33.264Z,71.67
2019-03-16T04:25:33.211Z,72.09
2019-03-16T04:26:33.197Z,72.19
2019-03-16T04:27:33.234Z,72.61
2019-03-16T04:28:33.180Z,72.61
2019-03-16T04:29:33.164Z,72.61
2019-03-16T04:30:33.157Z,72.40
2019-03-16T04:31:33.188Z,72.19
2019-03-16T04:32:33.132Z,72.30
2019-03-16T04:33:33.152Z,72.50
2019-03-16T04:34:33.153Z,72.50
2019-03-16T04:35:33.117Z,72.61
2019-03-16T04:36:33.135Z,72.91
2019-03-16T04:37:33.080Z,73.22
2019-03-16T04:38:33.072Z,72.61
2019-03-16T04:39:33.072Z,73.22
2019-03-16T04:40:33.043Z,73.02
2019-03-16T04:41:33.132Z,72.74
2019-03-16T04:42:33.021Z,73.12
2019-03-16T04:43:33.014Z,72.81
2019-03-16T04:44:33.004Z,72.81
2019-03-16T04:45:32.991Z,72.71
2019-03-16T04:46:32.990Z,72.61
2019-03-16T04:47:32.966Z,72.91
2019-03-16T04:48:32.955Z,73.16
2019-03-16T04:49:32.943Z,72.91
2019-03-16T04:50:32.940Z,72.91
2019-03-16T04:51:32.930Z,73.16
2019-03-16T04:52:32.972Z,72.71
2019-03-16T04:53:32.907Z,72.91
2019-03-16T04:54:32.891Z,73.02
2019-03-16T04:55:32.887Z,73.22
2019-03-16T04:56:32.875Z,73.43
2019-03-16T04:57:32.920Z,73.12
2019-03-16T04:58:32.850Z,73.02
2019-03-16T04:59:32.835Z,73.33
2019-03-16T05:00:32.835Z,73.33
2019-03-16T05:01:32.818Z,73.22
2019-03-16T05:02:32.864Z,73.02
2019-03-16T05:03:32.791Z,73.12
2019-03-16T05:04:42.490Z,73.22
2019-03-16T05:05:33.768Z,73.05
2019-03-16T05:06:32.762Z,73.02
2019-03-16T05:07:32.809Z,73.02
2019-03-16T05:08:32.781Z,72.95
2019-03-16T05:09:32.726Z,72.91
2019-03-16T05:10:32.715Z,73.22
2019-03-16T05:11:32.703Z,73.33
2019-03-16T05:12:32.696Z,73.43
2019-03-16T05:13:32.749Z,73.22
2019-03-16T05:14:32.675Z,73.12
2019-03-16T05:15:32.659Z,73.12
2019-03-16T05:16:32.647Z,73.22
2019-03-16T05:17:32.640Z,73.12
2019-03-16T05:18:32.627Z,73.05
2019-03-16T05:19:32.672Z,73.12
2019-03-16T05:20:32.610Z,73.12
2019-03-16T05:21:32.598Z,73.12
2019-03-16T05:22:32.586Z,73.02
2019-03-16T05:23:32.575Z,73.12
2019-03-16T05:24:32.559Z,73.22
2019-03-16T05:25:32.593Z,73.33
2019-03-16T05:26:32.538Z,73.22
2019-03-16T05:27:32.539Z,73.33
2019-03-16T05:28:32.516Z,73.02
2019-03-16T05:29:32.511Z,73.12
2019-03-16T05:30:32.820Z,73.02
2019-03-16T05:31:32.490Z,72.91
2019-03-16T05:32:32.473Z,73.33
2019-03-16T05:33:32.461Z,73.95
2019-03-16T05:34:32.501Z,74.05
2019-03-16T05:35:32.526Z,73.85
2019-03-16T05:36:32.431Z,74.05
2019-03-16T05:37:32.504Z,74.19
2019-03-16T05:38:32.410Z,73.95
2019-03-16T05:39:32.395Z,73.95
2019-03-16T05:40:32.384Z,74.05
2019-03-16T05:41:32.386Z,73.85
2019-03-16T05:42:32.367Z,73.98
2019-03-16T05:43:32.355Z,73.85
2019-03-16T05:44:32.420Z,73.74
2019-03-16T05:45:32.327Z,73.85
2019-03-16T05:46:32.317Z,73.74
2019-03-16T05:47:32.307Z,73.95
2019-03-16T05:48:32.299Z,73.64
2019-03-16T05:49:32.284Z,73.74
2019-03-16T05:50:32.316Z,74.05
2019-03-16T05:51:32.266Z,74.05
2019-03-16T05:52:32.294Z,73.95
2019-03-16T05:53:32.246Z,73.95
2019-03-16T05:54:32.243Z,74.05
2019-03-16T05:55:32.222Z,74.05
2019-03-16T05:56:32.214Z,73.74
2019-03-16T05:57:32.204Z,73.33
2019-03-16T05:58:32.232Z,73.43
2019-03-16T05:59:32.182Z,73.85
2019-03-16T06:00:32.168Z,73.74
2019-03-16T06:01:32.156Z,73.33
2019-03-16T06:02:32.144Z,73.54
2019-03-16T06:03:32.134Z,73.09
2019-03-16T06:04:32.162Z,73.39
2019-03-16T06:05:32.106Z,73.64
2019-03-16T06:06:32.101Z,73.02
2019-03-16T06:07:32.132Z,73.19
2019-03-16T06:08:32.078Z,72.99
2019-03-16T06:09:32.081Z,72.67
2019-03-16T06:10:32.055Z,72.67
2019-03-16T06:11:32.044Z,73.09
2019-03-16T06:12:32.073Z,72.67
2019-03-16T06:13:32.022Z,72.67
2019-03-16T06:14:32.006Z,72.88
2019-03-16T06:15:32.000Z,73.19
2019-03-16T06:16:31.989Z,72.67
2019-03-16T06:17:31.986Z,72.67
2019-03-16T06:18:31.982Z,72.78
2019-03-16T06:19:32.028Z,72.23
2019-03-16T06:20:31.946Z,72.57
2019-03-16T06:21:31.956Z,72.78
2019-03-16T06:22:32.065Z,72.33
2019-03-16T06:23:31.913Z,72.74
2019-03-16T06:24:31.901Z,72.23
2019-03-16T06:25:31.891Z,72.06
2019-03-16T06:26:31.877Z,72.13
2019-03-16T06:27:31.868Z,72.02
2019-03-16T06:28:31.895Z,71.81
2019-03-16T06:29:31.848Z,71.41
2019-03-16T06:30:31.867Z,71.81
2019-03-16T06:31:31.826Z,71.09
2019-03-16T06:32:31.813Z,71.61
2019-03-16T06:33:31.797Z,71.61
2019-03-16T06:34:31.790Z,71.20
2019-03-16T06:35:31.782Z,71.06
2019-03-16T06:36:31.799Z,71.16
2019-03-16T06:37:31.753Z,71.26
2019-03-16T06:38:31.747Z,71.16
2019-03-16T06:39:31.740Z,71.16
2019-03-16T06:40:31.727Z,71.26
2019-03-16T06:41:31.713Z,70.96
2019-03-16T06:42:31.744Z,71.26
2019-03-16T06:43:31.696Z,71.06
2019-03-16T06:44:31.721Z,71.06
2019-03-16T06:45:31.669Z,70.86
2019-03-16T06:46:31.661Z,70.62
2019-03-16T06:47:31.643Z,71.03
2019-03-16T06:48:31.715Z,71.23
2019-03-16T06:49:31.622Z,71.26
2019-03-16T06:50:31.615Z,71.13
2019-03-16T06:51:31.600Z,70.82
2019-03-16T06:52:31.589Z,71.03
2019-03-16T06:53:31.584Z,70.65
2019-03-16T06:54:31.613Z,71.13
2019-03-16T06:55:31.561Z,71.06
2019-03-16T06:56:31.545Z,70.62
2019-03-16T06:57:31.535Z,70.82
2019-03-16T06:58:31.529Z,70.20
2019-03-16T06:59:31.557Z,70.82
2019-03-16T07:00:31.503Z,70.51
2019-03-16T07:01:31.496Z,70.31
2019-03-16T07:02:31.486Z,70.62
2019-03-16T07:03:31.513Z,70.62
2019-03-16T07:04:31.503Z,70.00
2019-03-16T07:05:38.341Z,70.17
2019-03-16T07:06:32.481Z,70.48
2019-03-16T07:07:31.425Z,69.86
2019-03-16T07:08:31.416Z,69.55
2019-03-16T07:09:31.410Z,70.17
2019-03-16T07:10:31.396Z,69.65
2019-03-16T07:11:31.427Z,69.65
2019-03-16T07:12:31.373Z,69.14
2019-03-16T07:13:31.362Z,69.76
2019-03-16T07:14:31.353Z,69.83
2019-03-16T07:15:31.344Z,69.83
2019-03-16T07:16:31.373Z,69.62
2019-03-16T07:17:31.317Z,69.11
2019-03-16T07:18:31.315Z,69.62
2019-03-16T07:19:33.749Z,68.39
2019-03-16T07:20:31.291Z,68.70
2019-03-16T07:21:31.292Z,69.01
2019-03-16T07:22:31.266Z,69.42
2019-03-16T07:23:31.431Z,68.70
2019-03-16T07:24:31.241Z,68.49
2019-03-16T07:25:31.234Z,68.39
2019-03-16T07:26:31.217Z,68.39
2019-03-16T07:27:31.226Z,68.70
2019-03-16T07:28:31.196Z,68.49
2019-03-16T07:29:31.190Z,68.70
2019-03-16T07:30:31.174Z,68.56
2019-03-16T07:31:31.173Z,68.39
2019-03-16T07:32:31.215Z,68.70
2019-03-16T07:33:31.142Z,68.70
2019-03-16T07:34:31.132Z,68.77
2019-03-16T07:35:31.118Z,68.56
2019-03-16T07:36:31.112Z,68.70
2019-03-16T07:37:31.098Z,68.66
2019-03-16T07:38:31.094Z,68.32
2019-03-16T07:39:31.075Z,68.35
2019-03-16T07:40:31.063Z,68.25
2019-03-16T07:41:31.059Z,67.91
2019-03-16T07:42:31.046Z,67.71
2019-03-16T07:43:31.062Z,67.60
2019-03-16T07:44:31.021Z,67.60
2019-03-16T07:45:31.013Z,67.40
2019-03-16T07:46:30.997Z,67.50
2019-03-16T07:47:30.986Z,67.40
2019-03-16T07:48:31.025Z,66.78
2019-03-16T07:49:30.974Z,67.91
2019-03-16T07:50:31.030Z,67.57
2019-03-16T07:51:30.941Z,67.81
2019-03-16T07:52:30.932Z,66.99
2019-03-16T07:53:30.924Z,67.81
2019-03-16T07:54:31.427Z,67.50
2019-03-16T07:55:30.902Z,67.40
2019-03-16T07:56:30.885Z,67.81
2019-03-16T07:57:40.007Z,67.81
2019-03-16T07:58:31.862Z,67.50
2019-03-16T07:59:30.934Z,67.40
2019-03-16T08:00:30.847Z,67.40
2019-03-16T08:01:30.830Z,67.50
2019-03-16T08:02:30.825Z,67.57
2019-03-16T08:03:30.814Z,67.60
2019-03-16T08:04:30.798Z,67.30
2019-03-16T08:05:30.879Z,67.26
2019-03-16T08:06:33.303Z,67.26
2019-03-16T08:07:30.773Z,67.40
2019-03-16T08:08:30.754Z,67.47
2019-03-16T08:09:30.753Z,66.72
2019-03-16T08:10:30.777Z,66.93
2019-03-16T08:11:30.725Z,66.82
2019-03-16T08:12:32.491Z,66.82
2019-03-16T08:13:30.704Z,66.41
2019-03-16T08:14:30.688Z,66.31
2019-03-16T08:15:30.721Z,66.20
2019-03-16T08:16:30.690Z,66.31
2019-03-16T08:17:30.656Z,66.41
2019-03-16T08:18:30.644Z,66.51
2019-03-16T08:19:30.639Z,66.20
2019-03-16T08:20:31.601Z,65.80
2019-03-16T08:21:30.727Z,66.72
2019-03-16T08:22:30.609Z,66.51
2019-03-16T08:23:30.593Z,66.41
2019-03-16T08:24:30.581Z,66.51
2019-03-16T08:25:30.573Z,66.31
2019-03-16T08:26:30.561Z,66.41
2019-03-16T08:27:30.564Z,66.10
2019-03-16T08:28:30.547Z,66.20
2019-03-16T08:29:30.526Z,65.80
2019-03-16T08:30:30.515Z,66.00
2019-03-16T08:31:30.516Z,66.41
2019-03-16T08:32:30.508Z,65.80
2019-03-16T08:33:30.487Z,65.89
2019-03-16T08:34:30.471Z,66.00
2019-03-16T08:35:30.462Z,65.59
2019-03-16T08:36:30.462Z,66.20
2019-03-16T08:37:30.492Z,65.69
2019-03-16T08:38:30.431Z,65.08
2019-03-16T08:39:30.423Z,65.38
2019-03-16T08:40:30.408Z,66.00
2019-03-16T08:41:30.394Z,64.73
2019-03-16T08:42:30.389Z,64.66
2019-03-16T08:43:30.389Z,65.08
2019-03-16T08:44:30.372Z,64.97
2019-03-16T08:45:30.352Z,64.84
2019-03-16T08:46:30.341Z,64.40
2019-03-16T08:47:31.450Z,64.40
2019-03-16T08:48:30.364Z,64.29
2019-03-16T08:49:30.315Z,63.71
2019-03-16T08:50:30.298Z,63.20
2019-03-16T08:51:30.317Z,63.29
2019-03-16T08:52:30.283Z,63.81
2019-03-16T08:53:30.284Z,63.81
2019-03-16T08:54:30.266Z,64.19
2019-03-16T08:55:30.244Z,63.60
2019-03-16T08:56:30.237Z,63.57
2019-03-16T08:57:30.229Z,63.57
2019-03-16T08:58:30.215Z,63.37
2019-03-16T08:59:30.201Z,62.96
2019-03-16T09:00:30.200Z,63.47
2019-03-16T09:01:30.181Z,63.06
2019-03-16T09:02:30.173Z,63.44
2019-03-16T09:03:42.750Z,62.21
2019-03-16T09:04:31.152Z,62.62
2019-03-16T09:05:30.163Z,61.80
2019-03-16T09:06:30.124Z,61.70
2019-03-16T09:07:30.118Z,61.70
2019-03-16T09:08:30.109Z,61.80
2019-03-16T09:09:30.103Z,62.21
2019-03-16T09:10:30.085Z,62.21
2019-03-16T09:11:30.097Z,62.01
2019-03-16T09:12:30.065Z,62.11
2019-03-16T09:13:30.048Z,63.00
2019-03-16T09:14:30.042Z,62.08
2019-03-16T09:15:30.029Z,61.87
2019-03-16T09:16:30.033Z,61.87
2019-03-16T09:17:30.005Z,60.95
2019-03-16T09:18:29.997Z,61.16
2019-03-16T09:19:29.986Z,60.36
2019-03-16T09:20:29.975Z,60.95
2019-03-16T09:21:30.005Z,60.64
2019-03-16T09:22:29.961Z,61.26
2019-03-16T09:23:29.938Z,61.18
2019-03-16T09:24:29.931Z,62.01
2019-03-16T09:25:29.926Z,62.01
2019-03-16T09:26:29.906Z,62.21
2019-03-16T09:27:31.422Z,61.70
2019-03-16T09:28:29.887Z,60.85
2019-03-16T09:29:29.897Z,60.95
2019-03-16T09:30:29.882Z,61.08
2019-03-16T09:31:29.855Z,61.26
2019-03-16T09:32:29.847Z,60.61
2019-03-16T09:33:29.830Z,59.89
2019-03-16T09:34:29.821Z,60.58
2019-03-16T09:35:29.804Z,59.77
2019-03-16T09:36:29.796Z,59.77
2019-03-16T09:37:29.795Z,58.84
2019-03-16T09:38:29.793Z,59.69
2019-03-16T09:39:29.763Z,60.00
2019-03-16T09:40:29.747Z,60.54
2019-03-16T09:41:29.739Z,60.82
2019-03-16T09:42:29.745Z,60.21
2019-03-16T09:43:29.729Z,60.61
2019-03-16T09:44:29.708Z,59.69
2019-03-16T09:45:29.693Z,59.80
2019-03-16T09:46:29.685Z,59.80
2019-03-16T09:47:29.670Z,59.38
2019-03-16T09:48:29.697Z,59.89
2019-03-16T09:49:29.665Z,59.77
2019-03-16T09:50:29.718Z,59.97
2019-03-16T09:51:29.626Z,59.56
2019-03-16T09:52:29.621Z,59.25
2019-03-16T09:53:29.603Z,59.87
2019-03-16T09:54:29.608Z,59.66
2019-03-16T09:55:29.586Z,60.17
2019-03-16T09:56:29.571Z,59.05
2019-03-16T09:57:29.565Z,59.25
2019-03-16T09:58:31.392Z,58.23
2019-03-16T09:59:29.653Z,59.56
2019-03-16T10:00:29.525Z,58.12
2019-03-16T10:01:29.517Z,58.23
2019-03-16T10:02:29.509Z,58.23
2019-03-16T10:03:29.499Z,58.33
2019-03-16T10:04:29.500Z,58.54
2019-03-16T10:05:29.485Z,58.23
2019-03-16T10:06:29.462Z,56.90
2019-03-16T10:07:29.454Z,57.71
2019-03-16T10:08:29.449Z,57.28
2019-03-16T10:09:29.435Z,57.38
2019-03-16T10:10:29.437Z,57.48
2019-03-16T10:11:29.406Z,57.28
2019-03-16T10:12:29.400Z,57.25
2019-03-16T10:13:29.392Z,56.74
2019-03-16T10:14:29.378Z,56.74
2019-03-16T10:15:29.398Z,56.74
2019-03-16T10:16:29.357Z,56.54
2019-03-16T10:17:29.456Z,56.23
2019-03-16T10:18:29.329Z,56.35
2019-03-16T10:19:29.326Z,56.67
2019-03-16T10:20:29.425Z,56.67
2019-03-16T10:21:29.313Z,57.48
2019-03-16T10:22:29.291Z,57.20
2019-03-16T10:23:29.286Z,58.23
2019-03-16T10:24:29.269Z,58.23
2019-03-16T10:25:29.253Z,56.97
2019-03-16T10:26:29.253Z,56.77
2019-03-16T10:27:29.230Z,56.79
2019-03-16T10:28:29.222Z,56.87
2019-03-16T10:29:29.212Z,57.89
2019-03-16T10:30:29.202Z,57.18
2019-03-16T10:31:29.300Z,57.56
2019-03-16T10:32:29.180Z,57.25
2019-03-16T10:33:29.171Z,56.84
2019-03-16T10:34:29.175Z,56.95
2019-03-16T10:35:29.162Z,56.74
2019-03-16T10:36:29.246Z,56.10
2019-03-16T10:37:29.141Z,55.41
2019-03-16T10:38:29.112Z,55.41
2019-03-16T10:39:29.104Z,54.38
2019-03-16T10:40:29.109Z,54.59
2019-03-16T10:41:29.085Z,55.64
2019-03-16T10:42:29.111Z,54.90
2019-03-16T10:43:29.059Z,54.41
2019-03-16T10:44:29.056Z,54.82
2019-03-16T10:45:29.113Z,54.00
2019-03-16T10:46:29.025Z,55.02
2019-03-16T10:47:29.032Z,54.72
2019-03-16T10:48:29.013Z,55.43
2019-03-16T10:49:28.994Z,54.61
2019-03-16T10:50:28.985Z,54.92
2019-03-16T10:51:28.989Z,54.61
2019-03-16T10:52:28.967Z,55.13
2019-03-16T10:53:28.965Z,54.72
2019-03-16T10:54:28.947Z,54.85
2019-03-16T10:55:29.087Z,54.95
2019-03-16T10:56:28.916Z,55.05
2019-03-16T10:57:28.910Z,55.87
2019-03-16T10:58:28.926Z,56.38
2019-03-16T10:59:28.885Z,55.98
2019-03-16T11:00:28.873Z,55.85
2019-03-16T11:01:28.857Z,56.05
2019-03-16T11:02:28.850Z,56.05
2019-03-16T11:03:28.835Z,56.07
2019-03-16T11:04:28.946Z,57.28
2019-03-16T11:05:28.947Z,56.35
2019-03-16T11:06:28.832Z,57.18
2019-03-16T11:07:28.862Z,55.64
2019-03-16T11:08:28.792Z,56.07
2019-03-16T11:09:28.869Z,56.38
2019-03-16T11:10:28.808Z,56.28
2019-03-16T11:11:28.751Z,56.18
2019-03-16T11:12:28.742Z,57.31
2019-03-16T11:13:28.728Z,57.61
2019-03-16T11:14:28.712Z,57.31
2019-03-16T11:15:28.723Z,56.79
2019-03-16T11:16:28.699Z,57.00
2019-03-16T11:17:28.697Z,56.79
2019-03-16T11:18:28.672Z,57.84
2019-03-16T11:19:28.665Z,57.03
2019-03-16T11:20:28.690Z,58.46
2019-03-16T11:21:28.652Z,59.11
2019-03-16T11:22:28.624Z,59.62
2019-03-16T11:23:28.622Z,60.03
2019-03-16T11:24:28.606Z,58.18
2019-03-16T11:25:28.602Z,58.28
2019-03-16T11:26:28.584Z,58.41
2019-03-16T11:27:28.577Z,59.23
2019-03-16T11:28:28.561Z,59.44
2019-03-16T11:29:28.578Z,58.62
2019-03-16T11:30:28.557Z,59.13
2019-03-16T11:31:28.531Z,58.92
2019-03-16T11:32:28.921Z,59.95
2019-03-16T11:33:28.509Z,58.41
2019-03-16T11:34:28.499Z,59.85
2019-03-16T11:35:28.487Z,58.13
2019-03-16T11:36:28.477Z,59.67
2019-03-16T11:37:28.546Z,59.70
2019-03-16T11:38:28.467Z,60.11
2019-03-16T11:39:28.448Z,61.14
2019-03-16T11:40:28.430Z,59.73
2019-03-16T11:41:28.459Z,60.65
2019-03-16T11:42:28.413Z,61.07
2019-03-16T11:43:28.403Z,61.79
2019-03-16T11:44:28.388Z,62.09
2019-03-16T11:45:28.386Z,61.58
2019-03-16T11:46:28.369Z,63.22
2019-03-16T11:47:28.372Z,62.09
2019-03-16T11:48:28.350Z,63.53
2019-03-16T11:49:28.343Z,63.53
2019-03-16T11:50:28.381Z,63.22
2019-03-16T11:51:28.359Z,63.12
2019-03-16T11:52:28.298Z,63.84
2019-03-16T11:53:28.405Z,64.90
2019-03-16T11:54:28.277Z,64.69
2019-03-16T11:55:28.297Z,65.28
2019-03-16T11:56:28.260Z,64.56
2019-03-16T11:57:28.247Z,65.20
2019-03-16T11:58:28.236Z,65.59
2019-03-16T11:59:28.220Z,65.89
2019-03-16T12:00:28.213Z,66.10
2019-03-16T12:01:28.216Z,66.96
2019-03-16T12:02:28.190Z,67.78
2019-03-16T12:03:28.182Z,67.40
2019-03-16T12:04:28.170Z,67.71
2019-03-16T12:05:28.166Z,68.08
2019-03-16T12:06:28.146Z,68.63
2019-03-16T12:07:28.137Z,69.66
2019-03-16T12:08:28.422Z,70.28
2019-03-16T12:09:28.115Z,71.00
2019-03-16T12:10:28.130Z,70.90
2019-03-16T12:11:28.090Z,71.10
2019-03-16T12:12:28.079Z,70.18
2019-03-16T12:13:28.066Z,71.24
2019-03-16T12:14:28.063Z,71.24
2019-03-16T12:15:28.048Z,70.86
2019-03-16T12:16:28.048Z,72.09
2019-03-16T12:17:28.023Z,72.92
2019-03-16T12:18:28.010Z,72.47
2019-03-16T12:19:28.041Z,74.22
2019-03-16T12:20:28.903Z,74.88
2019-03-16T12:21:27.981Z,75.49
2019-03-16T12:22:27.975Z,75.39
2019-03-16T12:23:28.855Z,75.49
2019-03-16T12:24:27.950Z,75.32
2019-03-16T12:25:27.944Z,75.73
2019-03-16T12:26:27.923Z,76.46
2019-03-16T12:27:27.917Z,77.94
2019-03-16T12:28:27.931Z,78.14
2019-03-16T12:29:34.034Z,78.34
2019-03-16T12:30:28.878Z,78.76
2019-03-16T12:31:27.874Z,79.17
2019-03-16T12:32:27.857Z,77.87
2019-03-16T12:33:27.856Z,79.31
2019-03-16T12:34:27.840Z,80.14
2019-03-16T12:35:27.839Z,81.17
2019-03-16T12:36:27.814Z,81.99
2019-03-16T12:37:27.804Z,81.68
2019-03-16T12:38:27.794Z,82.96
2019-03-16T12:39:27.799Z,83.06
2019-03-16T12:40:27.787Z,83.48
2019-03-16T12:41:27.765Z,84.61
2019-03-16T12:42:27.752Z,85.95
2019-03-16T12:43:27.737Z,85.64
2019-03-16T12:44:27.725Z,86.16
2019-03-16T12:45:27.730Z,86.78
2019-03-16T12:46:27.713Z,87.08
2019-03-16T12:47:27.699Z,87.50
2019-03-16T12:48:27.680Z,88.32
2019-03-16T12:49:27.718Z,88.74
2019-03-16T12:50:27.685Z,89.05
2019-03-16T12:51:27.653Z,89.19
2019-03-16T12:52:27.663Z,89.77